AirNav   Advertisement
 
 287 users online  

AZ58 Roosevelt Dam Heliport
Roosevelt, Arizona, USA


FAA INFORMATION EFFECTIVE 20 JULY 2017

Location

FAA Identifier: AZ58
Lat/Long: 33-40-15.1730N / 111-09-43.4460W
33-40.252883N / 111-09.724100W
33.6708814 / -111.1620683
(estimated)
Elevation: 1895 ft. / 578 m (estimated)
Variation: 12E (1985)
From city: 2 miles W of ROOSEVELT, AZ
Time zone: UTC -7 (year round; does not observe DST)
Zip code: 85545

Heliport Operations

Heliport use: Private use. Permission required prior to landing
Activation date: 09/1982
Control tower: no
ARTCC: ALBUQUERQUE CENTER
FSS: PRESCOTT FLIGHT SERVICE STATION
Attendance: UNATNDD
Wind indicator: yes
Segmented circle: no

Nearby radio navigation aids

VOR radial/distance  VOR name  Freq  Var
IWAr035/33.0WILLIE VORTAC113.3013E

Heliport Services

Runway Information

Helipad H1

Dimensions: 70 x 50 ft. / 21 x 15 m
Surface: concrete
Traffic pattern: leftleft

Heliport Ownership and Management from official FAA records

Ownership: Privately-owned
Owner: SALT RIVER PROJECT
2601 E. AIRLANE
PHOENIX, AZ 85034
Phone 602-236-2479
Manager: JEFFREY R. CAMPBELL
2601 E. AIRLANE
PHOENIX, AZ 85034
Phone 480-375-1003

Additional Remarks

A52-H1 1000' MOUNTAIN 300' NORTH & SOUTH; 250' DAM 600' EAST.

Instrument Procedures

There are no published instrument procedures at AZ58.

Some nearby airports with instrument procedures:

KFFZ - Falcon Field Airport (31 nm SW)
P13 - San Carlos Apache Airport (31 nm SE)
KIWA - Phoenix-Mesa Gateway Airport (33 nm SW)
KPAN - Payson Airport (36 nm N)
KSDL - Scottsdale Airport (37 nm W)
 
Loc | Ops | Rwys | IFR | FBO | Links
Com | Nav | Svcs | Stats | Notes


 
Area around AZ58 (Roosevelt Dam Heliport)
 
Road maps at: MapQuest Bing Google
 
Aerial photo
No photo
 
Sectional chart

 
Airport distance calculator
Flying to Roosevelt Dam Heliport? Find the distance to fly.

From to AZ58

Sunrise and sunset
Times for 25-Jul-2017
 Local
(UTC-7)
 Zulu
(UTC)
Morning civil twilight05:0512:05
Sunrise05:3312:33
Sunset19:2902:29
Evening civil twilight19:5702:57

Current date and time
Zulu (UTC)  25-Jul-2017 08:12:53
Local (UTC-7)  25-Jul-2017 01:12:53
 
METAR
KFFZ 
30nm SW 
250247Z 18005KT 20SM SCT080 BKN180 30/22 A2987
KIWA 
33nm SW 
250755Z AUTO 13003KT 10SM SCT080 27/23 A2993 RMK AO2
KPAN 
36nm N 
250755Z AUTO 00000KT 10SM FEW010 19/18 A3021 RMK AO2
KSDL 
38nm W 
250753Z AUTO 00000KT 10SM CLR 28/22 A2994 RMK AO2 SLP112 T02830222
KCHD 
41nm SW 
250347Z VRB04KT 10SM FEW050 SCT150 BKN200 30/23 A2988 RMK LAST
KDVT 
45nm W 
250753Z AUTO 00000KT 10SM CLR 28/23 A2992 RMK AO2 SLP109 T02830233
KP08 
46nm S 
250755Z AUTO RMK AO2 PNO PWINO TSNO
KPHX 
47nm W 
250751Z 21003KT 10SM BKN080 BKN160 29/22 A2990 RMK AO2 SLP107 T02940222
TAF
KIWA 
33nm SW 
250520Z 2506/2606 14005KT P6SM SCT080 BKN250 FM252100 26008KT P6SM SCT120 BKN200 AMD LTD TO CLD VIS AND WIND TIL 251300
KSDL 
38nm W 
250520Z 2506/2606 VRB03KT P6SM SCT100 BKN250 FM252100 24005KT P6SM SCT120 BKN200
NOTAMs
Click for the latest NOTAMs
NOTAMs are issued by the DoD/FAA and will open in a separate window not controlled by AirNav.

 

 
 

Would you like to see your business listed on this page?

 If your business provides an interesting product or service to pilots, flight crews, aircraft, or users of the Roosevelt Dam Heliport, you should consider listing it here.  To start the listing process, click on the button below
 
Add a business
 

Other Pages about Roosevelt Dam Heliport

Update a link
 
Copyright © AirNav, LLC. All rights reserved. Privacy Policy  Contact